Time;durP1;ratioP1;P1;durP2;ratioP2;P2;SDS_P1;SDS_P2;PMS_P1;PMS_P2;Temp;Humidity;BMP_temperature;BMP_pressure;BME280_temperature;BME280_humidity;BME280_pressure;Samples;Min_cycle;Max_cycle;Signal;HPM_P1;HPM_P2
2023/12/29 00:00:41;;;;;;;16.92;5.85;;;;;;;;;;6130917;23;20025;-90
2023/12/29 00:03:25;;;;;;;17.83;4.95;;;;;;;;;;6129915;23;20017;-90
2023/12/29 00:06:09;;;;;;;17.70;4.50;;;;;;;;;;6130667;22;20025;-88
2023/12/29 00:08:53;;;;;;;25.88;4.63;;;;;;;;;;6129591;23;20093;-90
2023/12/29 00:11:37;;;;;;;16.88;4.68;;;;;;;;;;6130092;23;20098;-90
2023/12/29 00:14:21;;;;;;;28.13;5.10;;;;;;;;;;6131331;23;20024;-89
2023/12/29 00:17:08;;;;;;;17.58;4.13;;;;;;;;;;6130536;23;20079;-90
2023/12/29 00:19:54;;;;;;;25.45;4.63;;;;;;;;;;6130886;23;20066;-90
2023/12/29 00:22:47;;;;;;;18.35;4.72;;;;;;;;;;6131142;23;20021;-90
2023/12/29 00:25:32;;;;;;;16.98;3.88;;;;;;;;;;6130314;23;20024;-90
2023/12/29 00:28:18;;;;;;;24.23;5.03;;;;;;;;;;6130002;23;20483;-90
2023/12/29 00:31:09;;;;;;;21.67;5.35;;;;;;;;;;6129582;23;20025;-89
2023/12/29 00:33:53;;;;;;;19.60;5.15;;;;;;;;;;6129692;23;20023;-90
2023/12/29 00:36:37;;;;;;;14.82;3.85;;;;;;;;;;6151764;23;20510;-88
2023/12/29 00:39:28;;;;;;;24.35;4.80;;;;;;;;;;6130668;23;20070;-90
2023/12/29 00:42:16;;;;;;;22.98;4.05;;;;;;;;;;6130136;23;20052;-89
2023/12/29 00:45:00;;;;;;;24.45;4.72;;;;;;;;;;6129309;23;20120;-90
2023/12/29 00:47:44;;;;;;;19.23;4.30;;;;;;;;;;6130328;23;20024;-89
2023/12/29 00:50:34;;;;;;;17.85;3.95;;;;;;;;;;6129805;23;20458;-88
2023/12/29 00:53:18;;;;;;;22.73;4.93;;;;;;;;;;6130973;23;20027;-91
2023/12/29 00:56:02;;;;;;;18.08;4.05;;;;;;;;;;6153611;23;20071;-88
2023/12/29 00:58:46;;;;;;;15.50;4.40;;;;;;;;;;6130917;23;20145;-91
2023/12/29 01:01:34;;;;;;;23.90;4.20;;;;;;;;;;6129834;23;20099;-90
2023/12/29 01:04:18;;;;;;;30.48;4.82;;;;;;;;;;6129084;23;20020;-89
2023/12/29 01:07:03;;;;;;;14.43;4.30;;;;;;;;;;6130963;23;20024;-89
2023/12/29 01:09:46;;;;;;;22.75;4.15;;;;;;;;;;6131345;23;20070;-90
2023/12/29 01:12:30;;;;;;;11.73;3.47;;;;;;;;;;6130935;23;20025;-89
2023/12/29 01:15:14;;;;;;;19.05;4.00;;;;;;;;;;6130545;22;20016;-89
2023/12/29 01:17:58;;;;;;;18.25;4.35;;;;;;;;;;6130869;23;20020;-90
2023/12/29 01:20:45;;;;;;;22.08;4.43;;;;;;;;;;6130447;23;20043;-89
2023/12/29 01:23:30;;;;;;;27.80;4.70;;;;;;;;;;6131068;23;20020;-90
2023/12/29 01:26:14;;;;;;;15.10;3.40;;;;;;;;;;6130698;23;20090;-90
2023/12/29 01:28:58;;;;;;;22.48;4.10;;;;;;;;;;6152699;23;20097;-89
2023/12/29 01:31:42;;;;;;;15.65;3.72;;;;;;;;;;6130507;23;20047;-89
2023/12/29 01:34:32;;;;;;;14.52;4.05;;;;;;;;;;6130463;23;20067;-90
2023/12/29 01:37:16;;;;;;;15.13;4.07;;;;;;;;;;6130467;23;20510;-89
2023/12/29 01:40:00;;;;;;;18.45;4.05;;;;;;;;;;6153119;23;20021;-88
2023/12/29 01:42:44;;;;;;;13.38;3.85;;;;;;;;;;6130842;23;20020;-88
2023/12/29 01:45:28;;;;;;;18.80;3.80;;;;;;;;;;6130522;23;20032;-90
2023/12/29 01:48:12;;;;;;;13.95;4.07;;;;;;;;;;6130018;23;20066;-87
2023/12/29 01:50:57;;;;;;;12.75;3.42;;;;;;;;;;6130476;23;20105;-88
2023/12/29 01:53:41;;;;;;;18.80;4.47;;;;;;;;;;6130035;23;20063;-89
2023/12/29 01:56:25;;;;;;;18.50;4.10;;;;;;;;;;6129998;23;20021;-88
2023/12/29 01:59:09;;;;;;;17.95;4.20;;;;;;;;;;6130568;23;20060;-90
2023/12/29 02:01:55;;;;;;;20.75;4.05;;;;;;;;;;6130911;23;20024;-90
2023/12/29 02:04:40;;;;;;;22.08;6.50;;;;;;;;;;6130454;23;20016;-90
2023/12/29 02:07:24;;;;;;;19.95;4.18;;;;;;;;;;6130541;23;20048;-88
2023/12/29 02:10:09;;;;;;;18.65;4.28;;;;;;;;;;6131315;23;20075;-89
2023/12/29 02:12:57;;;;;;;18.13;4.28;;;;;;;;;;6130763;23;20020;-90
2023/12/29 02:15:41;;;;;;;19.42;3.88;;;;;;;;;;6130676;23;20020;-88
2023/12/29 02:18:26;;;;;;;18.27;3.63;;;;;;;;;;6130166;23;20016;-89
2023/12/29 02:21:10;;;;;;;16.40;3.50;;;;;;;;;;6129327;23;20020;-88
2023/12/29 02:23:54;;;;;;;13.63;3.75;;;;;;;;;;6151197;23;20017;-88
2023/12/29 02:26:39;;;;;;;15.55;4.05;;;;;;;;;;6128945;23;20020;-87
2023/12/29 02:29:24;;;;;;;15.48;3.75;;;;;;;;;;6128874;23;20463;-87
2023/12/29 02:32:11;;;;;;;16.38;3.33;;;;;;;;;;6128116;23;20028;-88
2023/12/29 02:34:56;;;;;;;11.90;3.80;;;;;;;;;;6128219;23;20048;-89
2023/12/29 02:37:40;;;;;;;17.17;4.13;;;;;;;;;;6128177;23;20463;-89
2023/12/29 02:40:25;;;;;;;17.65;3.42;;;;;;;;;;6128568;23;20021;-90
2023/12/29 02:43:10;;;;;;;20.98;3.78;;;;;;;;;;6128767;23;20067;-88
2023/12/29 02:45:54;;;;;;;17.38;4.20;;;;;;;;;;6127979;23;20079;-88
2023/12/29 02:48:38;;;;;;;19.35;4.60;;;;;;;;;;6128302;23;20411;-88
2023/12/29 02:51:22;;;;;;;13.35;3.35;;;;;;;;;;6128799;23;20020;-87
2023/12/29 02:54:08;;;;;;;18.42;3.75;;;;;;;;;;6128892;23;20083;-87
2023/12/29 02:56:52;;;;;;;11.13;3.58;;;;;;;;;;6129169;23;20028;-88
2023/12/29 02:59:37;;;;;;;18.38;3.55;;;;;;;;;;6128749;23;20075;-88
2023/12/29 03:02:21;;;;;;;16.58;3.75;;;;;;;;;;6129153;23;20022;-89
2023/12/29 03:05:06;;;;;;;17.73;4.80;;;;;;;;;;6128780;23;20067;-89
2023/12/29 03:07:50;;;;;;;15.75;3.92;;;;;;;;;;6128776;23;20024;-88
2023/12/29 03:10:34;;;;;;;14.07;3.47;;;;;;;;;;6128751;23;20199;-88
2023/12/29 03:13:18;;;;;;;18.52;3.85;;;;;;;;;;6129147;23;20021;-90
2023/12/29 03:16:02;;;;;;;15.93;3.50;;;;;;;;;;6127905;23;20147;-88
2023/12/29 03:18:45;;;;;;;18.23;4.15;;;;;;;;;;6128829;23;20451;-88
2023/12/29 03:21:29;;;;;;;18.80;3.85;;;;;;;;;;6129681;23;20466;-89
2023/12/29 03:24:13;;;;;;;22.42;3.78;;;;;;;;;;6128758;23;20482;-89
2023/12/29 03:26:57;;;;;;;18.50;3.30;;;;;;;;;;6128423;23;20513;-90
2023/12/29 03:29:41;;;;;;;22.50;4.88;;;;;;;;;;6128735;23;20091;-88
2023/12/29 03:32:25;;;;;;;16.20;4.15;;;;;;;;;;6128628;22;20028;-89
2023/12/29 03:35:09;;;;;;;20.05;3.72;;;;;;;;;;6150537;23;20524;-90
2023/12/29 03:37:53;;;;;;;21.70;3.72;;;;;;;;;;6128556;23;20070;-89
2023/12/29 03:40:37;;;;;;;13.98;3.42;;;;;;;;;;6150492;23;20020;-88
2023/12/29 03:43:21;;;;;;;18.88;4.05;;;;;;;;;;6128626;23;20470;-89
2023/12/29 03:46:15;;;;;;;18.33;3.97;;;;;;;;;;6128887;23;20051;-88
2023/12/29 03:48:59;;;;;;;12.98;3.55;;;;;;;;;;6128665;23;20067;-88
2023/12/29 03:51:43;;;;;;;24.20;5.20;;;;;;;;;;6129098;23;20479;-88
2023/12/29 03:54:26;;;;;;;22.52;4.10;;;;;;;;;;6127672;23;20082;-87
2023/12/29 03:57:10;;;;;;;26.05;4.03;;;;;;;;;;6127727;23;20523;-88
2023/12/29 03:59:54;;;;;;;22.17;5.05;;;;;;;;;;6128215;23;20021;-89
2023/12/29 04:02:38;;;;;;;22.63;4.45;;;;;;;;;;6129001;23;20336;-88
2023/12/29 04:05:22;;;;;;;9.88;3.45;;;;;;;;;;6128599;23;20016;-88
2023/12/29 04:08:06;;;;;;;18.23;3.92;;;;;;;;;;6128510;23;20084;-89
2023/12/29 04:10:50;;;;;;;14.43;3.75;;;;;;;;;;6127792;23;20017;-89
2023/12/29 04:13:34;;;;;;;19.40;4.10;;;;;;;;;;6127757;23;20020;-88
2023/12/29 04:16:18;;;;;;;21.38;4.43;;;;;;;;;;6127564;23;20024;-88
2023/12/29 04:19:02;;;;;;;17.23;4.60;;;;;;;;;;6128227;23;20537;-89
2023/12/29 04:21:46;;;;;;;23.77;5.32;;;;;;;;;;6127629;23;20399;-88
2023/12/29 04:24:30;;;;;;;17.67;3.30;;;;;;;;;;6127847;23;20336;-88
2023/12/29 04:27:15;;;;;;;26.17;5.25;;;;;;;;;;6128115;23;20071;-89
2023/12/29 04:29:58;;;;;;;21.77;5.07;;;;;;;;;;6149247;23;20024;-88
2023/12/29 04:32:42;;;;;;;18.10;3.45;;;;;;;;;;6118448;23;20500;-87
2023/12/29 04:35:26;;;;;;;30.98;4.63;;;;;;;;;;6120417;23;20037;-89
2023/12/29 04:38:10;;;;;;;21.65;4.25;;;;;;;;;;6119928;23;20075;-89
2023/12/29 04:40:54;;;;;;;22.10;4.45;;;;;;;;;;6119785;23;20160;-88
2023/12/29 04:43:38;;;;;;;12.63;3.70;;;;;;;;;;6119399;23;20021;-89
2023/12/29 04:46:22;;;;;;;20.27;3.75;;;;;;;;;;6119235;23;20455;-88
2023/12/29 04:49:06;;;;;;;20.23;3.85;;;;;;;;;;6120902;23;20398;-89
2023/12/29 04:51:50;;;;;;;15.57;3.78;;;;;;;;;;6119663;23;20021;-88
2023/12/29 04:54:34;;;;;;;18.38;4.15;;;;;;;;;;6119554;23;20050;-88
2023/12/29 04:57:18;;;;;;;23.17;4.63;;;;;;;;;;6118842;23;20067;-88
2023/12/29 05:00:02;;;;;;;15.48;4.28;;;;;;;;;;6119088;23;20467;-87
2023/12/29 05:02:46;;;;;;;24.60;4.65;;;;;;;;;;6119578;23;20045;-89
2023/12/29 05:05:30;;;;;;;16.10;3.90;;;;;;;;;;6118788;23;20017;-87
2023/12/29 05:08:14;;;;;;;18.95;4.00;;;;;;;;;;6118936;23;20057;-88
2023/12/29 05:10:58;;;;;;;22.38;4.65;;;;;;;;;;6120348;23;20385;-87
2023/12/29 05:13:45;;;;;;;19.88;4.15;;;;;;;;;;6118659;23;20333;-89
2023/12/29 05:16:28;;;;;;;29.02;5.30;;;;;;;;;;6118997;23;20025;-86
2023/12/29 05:19:12;;;;;;;15.30;3.35;;;;;;;;;;6119010;23;20387;-88
2023/12/29 05:21:56;;;;;;;18.30;3.80;;;;;;;;;;6119682;23;20879;-88
2023/12/29 05:24:40;;;;;;;17.35;4.07;;;;;;;;;;6119313;23;20017;-87
2023/12/29 05:27:24;;;;;;;24.45;4.30;;;;;;;;;;6120010;23;20349;-88
2023/12/29 05:30:08;;;;;;;29.40;4.68;;;;;;;;;;6119973;23;20021;-90
2023/12/29 05:32:53;;;;;;;18.92;4.55;;;;;;;;;;6128874;23;20533;-89
2023/12/29 05:35:37;;;;;;;18.58;4.78;;;;;;;;;;6128610;23;20110;-88
2023/12/29 05:38:21;;;;;;;23.58;4.75;;;;;;;;;;6128977;23;20020;-87
2023/12/29 05:41:05;;;;;;;20.33;4.43;;;;;;;;;;6149957;23;20024;-87
2023/12/29 05:43:49;;;;;;;24.05;5.25;;;;;;;;;;6127672;23;20393;-89
2023/12/29 05:46:46;;;;;;;25.67;4.50;;;;;;;;;;6128318;23;20840;-87
2023/12/29 05:49:31;;;;;;;21.23;5.25;;;;;;;;;;6128769;23;20069;-88
2023/12/29 05:52:15;;;;;;;22.38;5.40;;;;;;;;;;6129007;23;20048;-89
2023/12/29 05:54:59;;;;;;;21.95;4.60;;;;;;;;;;6129012;23;20009;-88
2023/12/29 05:57:43;;;;;;;21.42;4.20;;;;;;;;;;6129446;23;20100;-89
2023/12/29 06:00:27;;;;;;;19.23;4.38;;;;;;;;;;6127768;23;20020;-89
2023/12/29 06:03:11;;;;;;;19.05;4.55;;;;;;;;;;6128577;23;20021;-89
2023/12/29 06:05:55;;;;;;;19.95;4.57;;;;;;;;;;6129100;23;20055;-88
2023/12/29 06:08:39;;;;;;;20.55;4.13;;;;;;;;;;6128718;23;20021;-89
2023/12/29 06:11:23;;;;;;;21.13;4.57;;;;;;;;;;6129050;23;20020;-88
2023/12/29 06:14:07;;;;;;;23.60;5.03;;;;;;;;;;6128443;23;20070;-89
2023/12/29 06:16:52;;;;;;;19.95;4.68;;;;;;;;;;6128525;23;20021;-89
2023/12/29 06:19:36;;;;;;;19.48;4.35;;;;;;;;;;6128439;23;20475;-87
2023/12/29 06:22:20;;;;;;;13.05;3.83;;;;;;;;;;6150281;23;20394;-88
2023/12/29 06:25:05;;;;;;;20.52;4.18;;;;;;;;;;6128477;23;20435;-88
2023/12/29 06:27:51;;;;;;;27.67;4.72;;;;;;;;;;6129207;23;20028;-89
2023/12/29 06:30:36;;;;;;;25.42;4.75;;;;;;;;;;6128430;22;20035;-88
2023/12/29 06:33:23;;;;;;;20.48;4.10;;;;;;;;;;6128506;23;20028;-88
2023/12/29 06:36:07;;;;;;;13.93;4.22;;;;;;;;;;6128898;23;20068;-88
2023/12/29 06:38:52;;;;;;;22.23;5.30;;;;;;;;;;6128200;23;20051;-89
2023/12/29 06:41:35;;;;;;;24.10;4.68;;;;;;;;;;6128786;23;20044;-87
2023/12/29 06:44:19;;;;;;;23.52;4.53;;;;;;;;;;6128912;23;20067;-89
2023/12/29 06:47:05;;;;;;;35.58;6.45;;;;;;;;;;6150402;23;20455;-88
2023/12/29 06:49:50;;;;;;;21.70;4.65;;;;;;;;;;6129059;23;20067;-88
2023/12/29 06:52:34;;;;;;;21.65;4.85;;;;;;;;;;6128491;23;20026;-88
2023/12/29 06:55:18;;;;;;;23.00;4.82;;;;;;;;;;6128063;23;20343;-87
2023/12/29 06:58:02;;;;;;;24.55;6.03;;;;;;;;;;6128739;23;20021;-87
2023/12/29 07:00:46;;;;;;;23.05;4.55;;;;;;;;;;6128702;23;20017;-89
2023/12/29 07:03:30;;;;;;;18.75;4.13;;;;;;;;;;6128286;23;20241;-89
2023/12/29 07:06:17;;;;;;;22.73;4.88;;;;;;;;;;6128225;23;20067;-90
2023/12/29 07:09:01;;;;;;;22.88;5.25;;;;;;;;;;6127596;23;20025;-89
2023/12/29 07:11:49;;;;;;;21.50;4.85;;;;;;;;;;6128560;23;20067;-89
2023/12/29 07:14:35;;;;;;;16.63;4.88;;;;;;;;;;6128075;23;20110;-88
2023/12/29 07:17:22;;;;;;;17.80;3.97;;;;;;;;;;6128142;23;20106;-89
2023/12/29 07:20:09;;;;;;;24.02;4.88;;;;;;;;;;6128452;22;20020;-89
2023/12/29 07:22:59;;;;;;;21.35;4.90;;;;;;;;;;6127744;23;20344;-88
2023/12/29 07:25:47;;;;;;;22.73;4.63;;;;;;;;;;6127686;23;20020;-88
2023/12/29 07:28:39;;;;;;;22.30;4.65;;;;;;;;;;6127908;23;20024;-88
2023/12/29 07:31:23;;;;;;;17.27;4.85;;;;;;;;;;6128716;23;20622;-89
2023/12/29 07:34:10;;;;;;;19.63;4.55;;;;;;;;;;6129095;22;20075;-88
2023/12/29 07:36:58;;;;;;;25.00;4.53;;;;;;;;;;6127785;22;20020;-87
2023/12/29 07:39:54;;;;;;;21.85;3.85;;;;;;;;;;6128459;22;20016;-90
2023/12/29 07:42:59;;;;;;;12.27;4.43;;;;;;;;;;6150347;23;20439;-88
2023/12/29 07:46:04;;;;;;;24.77;4.93;;;;;;;;;;6127525;22;20064;-88
2023/12/29 07:49:10;;;;;;;23.05;5.10;;;;;;;;;;6128525;22;20020;-87
2023/12/29 07:52:23;;;;;;;17.40;4.00;;;;;;;;;;6129805;23;20037;-88
2023/12/29 07:55:50;;;;;;;27.60;4.97;;;;;;;;;;6130724;22;20037;-87
2023/12/29 08:02:11;;;;;;;13.65;4.60;;;;;;;;;;6150794;23;20066;-89
2023/12/29 08:05:10;;;;;;;24.23;5.28;;;;;;;;;;6151890;23;20063;-89
2023/12/29 08:07:57;;;;;;;20.40;4.75;;;;;;;;;;6128990;23;20063;-87
2023/12/29 08:10:47;;;;;;;22.45;5.03;;;;;;;;;;6129554;22;20093;-89
2023/12/29 08:13:31;;;;;;;17.90;4.10;;;;;;;;;;6130952;23;20471;-89
2023/12/29 08:16:24;;;;;;;24.48;4.80;;;;;;;;;;6130374;23;20100;-89
2023/12/29 08:26:58;;;;;;;18.45;4.55;;;;;;;;;;6159899;23;20017;-89
2023/12/29 08:29:42;;;;;;;24.48;4.63;;;;;;;;;;6131905;23;20426;-89
2023/12/29 08:32:26;;;;;;;20.10;4.57;;;;;;;;;;6130602;23;20048;-89
2023/12/29 08:35:10;;;;;;;20.15;4.40;;;;;;;;;;6129172;23;20028;-88
2023/12/29 08:37:56;;;;;;;22.02;5.05;;;;;;;;;;6130245;23;20024;-89
2023/12/29 08:40:41;;;;;;;27.25;4.68;;;;;;;;;;6129948;23;20017;-89
2023/12/29 08:43:26;;;;;;;21.05;4.70;;;;;;;;;;6129173;23;20466;-89
2023/12/29 08:46:10;;;;;;;16.67;4.15;;;;;;;;;;6130694;23;20021;-88
2023/12/29 08:48:54;;;;;;;24.20;4.60;;;;;;;;;;6131957;23;20028;-89
2023/12/29 08:51:38;;;;;;;18.92;5.10;;;;;;;;;;6133405;23;20025;-88
2023/12/29 08:54:22;;;;;;;18.50;3.95;;;;;;;;;;6132087;23;20075;-90
2023/12/29 08:57:10;;;;;;;22.73;4.53;;;;;;;;;;6130909;23;20438;-90
2023/12/29 08:59:54;;;;;;;32.03;5.13;;;;;;;;;;6133297;23;20364;-89
2023/12/29 09:02:38;;;;;;;22.73;4.18;;;;;;;;;;6132377;22;20347;-91
2023/12/29 09:05:22;;;;;;;20.48;4.15;;;;;;;;;;6131980;23;20374;-88
2023/12/29 09:08:06;;;;;;;27.88;6.03;;;;;;;;;;6132474;23;20088;-89
2023/12/29 09:10:50;;;;;;;21.40;3.95;;;;;;;;;;6132823;23;20016;-90
2023/12/29 09:13:34;;;;;;;17.67;3.92;;;;;;;;;;6132127;23;20020;-90
2023/12/29 09:16:18;;;;;;;22.30;5.22;;;;;;;;;;6133205;23;20052;-89
2023/12/29 09:19:05;;;;;;;26.30;4.45;;;;;;;;;;6132746;23;20020;-89
2023/12/29 09:21:49;;;;;;;24.85;4.03;;;;;;;;;;6131859;23;20021;-89
2023/12/29 09:24:33;;;;;;;22.33;4.18;;;;;;;;;;6131883;23;20017;-90
2023/12/29 09:27:17;;;;;;;16.67;4.22;;;;;;;;;;6131787;23;20564;-88
2023/12/29 09:30:01;;;;;;;28.80;6.90;;;;;;;;;;6132412;23;20087;-89
2023/12/29 09:32:51;;;;;;;23.13;4.35;;;;;;;;;;6131526;23;20032;-89
2023/12/29 09:35:36;;;;;;;22.98;4.10;;;;;;;;;;6134045;22;20036;-89
2023/12/29 09:38:20;;;;;;;20.60;4.55;;;;;;;;;;6134454;22;20044;-89
2023/12/29 09:41:09;;;;;;;17.83;3.60;;;;;;;;;;6133508;23;20028;-89
2023/12/29 09:43:53;;;;;;;20.67;4.55;;;;;;;;;;6133199;23;20016;-90
2023/12/29 09:50:09;;;;;;;19.98;4.40;;;;;;;;;;6123978;23;20348;-88
2023/12/29 09:52:54;;;;;;;20.67;3.83;;;;;;;;;;6132820;23;20139;-90
2023/12/29 09:55:40;;;;;;;26.13;4.10;;;;;;;;;;6132244;23;20040;-88
2023/12/29 09:58:25;;;;;;;21.27;3.80;;;;;;;;;;6132021;23;20017;-89
2023/12/29 10:01:09;;;;;;;16.15;3.63;;;;;;;;;;6133543;23;20020;-89
2023/12/29 10:03:53;;;;;;;16.80;3.78;;;;;;;;;;6133911;23;20016;-89
2023/12/29 10:06:38;;;;;;;17.33;3.95;;;;;;;;;;6134215;23;20072;-90
2023/12/29 10:09:23;;;;;;;18.25;4.10;;;;;;;;;;6131116;23;20021;-90
2023/12/29 10:12:09;;;;;;;17.83;4.10;;;;;;;;;;6131447;23;20047;-90
2023/12/29 10:14:53;;;;;;;26.88;4.72;;;;;;;;;;6131156;23;20474;-89
2023/12/29 10:17:46;;;;;;;16.80;3.25;;;;;;;;;;6133002;22;20063;-88
2023/12/29 10:20:30;;;;;;;32.45;4.63;;;;;;;;;;6133593;23;20016;-87
2023/12/29 10:23:20;;;;;;;16.58;3.78;;;;;;;;;;6133290;23;20016;-89
2023/12/29 10:26:04;;;;;;;16.60;3.80;;;;;;;;;;6132651;23;20355;-89
2023/12/29 10:28:51;;;;;;;21.98;4.35;;;;;;;;;;6130787;23;20091;-88
2023/12/29 10:31:35;;;;;;;24.40;4.05;;;;;;;;;;6152437;23;20105;-88
2023/12/29 10:34:20;;;;;;;13.55;3.47;;;;;;;;;;6131155;23;20791;-86
2023/12/29 10:37:08;;;;;;;17.80;3.20;;;;;;;;;;6131246;23;20024;-87
2023/12/29 10:39:56;;;;;;;16.27;4.63;;;;;;;;;;6131925;23;20048;-89
2023/12/29 10:42:51;;;;;;;15.50;4.57;;;;;;;;;;6130910;23;20035;-88
2023/12/29 10:45:38;;;;;;;17.50;3.70;;;;;;;;;;6152397;23;20036;-88
2023/12/29 10:48:24;;;;;;;18.27;3.40;;;;;;;;;;6133487;23;20020;-90
2023/12/29 10:51:09;;;;;;;20.05;3.78;;;;;;;;;;6143646;23;20044;-89
2023/12/29 10:53:56;;;;;;;18.33;3.83;;;;;;;;;;6149896;23;20032;-91
2023/12/29 10:56:40;;;;;;;20.23;4.13;;;;;;;;;;6132412;23;20020;-89
2023/12/29 10:59:24;;;;;;;17.50;4.07;;;;;;;;;;6131363;23;20043;-89
2023/12/29 11:02:14;;;;;;;20.95;4.00;;;;;;;;;;6133649;22;20024;-90
2023/12/29 11:05:07;;;;;;;17.70;4.07;;;;;;;;;;6140875;23;20021;-89
2023/12/29 11:07:58;;;;;;;15.93;4.45;;;;;;;;;;6110955;23;20471;-87
2023/12/29 11:10:45;;;;;;;26.73;4.32;;;;;;;;;;6132267;22;20070;-87
2023/12/29 11:13:38;;;;;;;19.88;4.25;;;;;;;;;;6130439;23;20039;-87
2023/12/29 11:16:23;;;;;;;21.55;4.78;;;;;;;;;;6129685;23;20024;-90
2023/12/29 11:19:07;;;;;;;28.23;4.07;;;;;;;;;;6152140;23;20024;-89
2023/12/29 11:21:55;;;;;;;17.95;4.90;;;;;;;;;;6151918;23;20024;-88
2023/12/29 11:24:39;;;;;;;19.42;3.60;;;;;;;;;;6130451;23;20024;-88
2023/12/29 11:27:23;;;;;;;23.65;4.38;;;;;;;;;;6129981;23;20063;-89
2023/12/29 11:30:07;;;;;;;24.40;4.50;;;;;;;;;;6129699;23;20025;-87
2023/12/29 11:33:00;;;;;;;15.88;4.05;;;;;;;;;;6130089;23;20029;-87
2023/12/29 11:35:51;;;;;;;16.00;4.63;;;;;;;;;;6152057;23;20151;-87
2023/12/29 11:38:39;;;;;;;15.38;3.40;;;;;;;;;;6130071;23;20231;-87
2023/12/29 11:41:36;;;;;;;23.10;4.40;;;;;;;;;;6130206;22;20092;-89
2023/12/29 11:44:27;;;;;;;17.65;4.10;;;;;;;;;;6130250;23;20017;-87
2023/12/29 11:47:30;;;;;;;13.73;3.20;;;;;;;;;;6130230;23;20343;-87
2023/12/29 11:50:17;;;;;;;15.05;3.05;;;;;;;;;;6130426;23;20048;-88
2023/12/29 11:53:03;;;;;;;15.65;3.67;;;;;;;;;;6129915;23;20352;-88
2023/12/29 11:55:47;;;;;;;19.33;4.43;;;;;;;;;;6130104;23;20576;-88
2023/12/29 11:58:31;;;;;;;18.38;4.82;;;;;;;;;;6153577;23;20021;-89
2023/12/29 12:01:35;;;;;;;18.67;5.05;;;;;;;;;;6129396;23;20032;-89
2023/12/29 12:04:41;;;;;;;13.77;3.47;;;;;;;;;;6129454;23;20395;-88
2023/12/29 12:07:25;;;;;;;17.50;3.60;;;;;;;;;;6128785;23;20023;-88
2023/12/29 12:10:30;;;;;;;14.77;3.40;;;;;;;;;;6131643;23;20107;-89
2023/12/29 12:13:34;;;;;;;21.40;3.47;;;;;;;;;;6134460;23;20042;-89
2023/12/29 12:16:37;;;;;;;12.02;3.22;;;;;;;;;;6138837;23;20070;-89
2023/12/29 12:19:24;;;;;;;13.18;3.03;;;;;;;;;;6139146;23;20025;-88
2023/12/29 12:22:10;;;;;;;13.95;4.05;;;;;;;;;;6139546;23;20020;-89
2023/12/29 12:25:00;;;;;;;18.35;3.55;;;;;;;;;;6139191;22;20074;-88
2023/12/29 12:27:45;;;;;;;19.45;4.07;;;;;;;;;;6137337;23;20404;-89
2023/12/29 12:30:30;;;;;;;14.02;3.83;;;;;;;;;;6138283;23;20020;-88
2023/12/29 12:33:15;;;;;;;24.63;3.33;;;;;;;;;;6135590;23;20419;-91
2023/12/29 12:36:02;;;;;;;22.10;4.22;;;;;;;;;;6139845;23;20040;-90
2023/12/29 12:38:53;;;;;;;18.10;3.63;;;;;;;;;;6135993;23;20017;-89
2023/12/29 12:41:37;;;;;;;13.68;3.13;;;;;;;;;;6136249;23;20078;-89
2023/12/29 12:44:23;;;;;;;17.85;3.70;;;;;;;;;;6136501;22;20147;-89
2023/12/29 12:47:09;;;;;;;16.83;3.38;;;;;;;;;;6133798;22;20029;-88
2023/12/29 12:49:53;;;;;;;18.30;3.63;;;;;;;;;;6131059;23;20031;-88
2023/12/29 12:52:38;;;;;;;11.98;3.80;;;;;;;;;;6132969;23;20020;-89
2023/12/29 12:55:33;;;;;;;15.07;3.42;;;;;;;;;;6137700;23;20024;-89
2023/12/29 12:58:32;;;;;;;17.48;3.70;;;;;;;;;;6138403;23;20029;-89
2023/12/29 13:01:16;;;;;;;17.00;4.00;;;;;;;;;;6135836;23;20021;-88
2023/12/29 13:15:04;;;;;;;17.02;3.28;;;;;;;;;;6164098;23;20062;-86
2023/12/29 13:17:52;;;;;;;17.10;3.72;;;;;;;;;;6139426;22;20021;-90
2023/12/29 13:20:50;;;;;;;12.68;3.70;;;;;;;;;;6140728;23;20395;-90
2023/12/29 13:23:37;;;;;;;13.43;3.38;;;;;;;;;;6134867;23;20020;-88
2023/12/29 13:26:24;;;;;;;10.48;3.50;;;;;;;;;;6133923;23;20028;-89
2023/12/29 13:29:17;;;;;;;20.55;4.22;;;;;;;;;;6135941;23;20078;-89
2023/12/29 13:32:20;;;;;;;23.50;3.55;;;;;;;;;;6135411;23;20032;-88
2023/12/29 13:35:05;;;;;;;10.48;3.17;;;;;;;;;;6136602;23;20056;-90
2023/12/29 13:37:55;;;;;;;13.95;4.28;;;;;;;;;;6137775;22;20020;-89
2023/12/29 13:40:47;;;;;;;15.07;3.60;;;;;;;;;;6136028;23;20036;-88
2023/12/29 13:43:32;;;;;;;16.40;3.40;;;;;;;;;;6137590;23;20067;-88
2023/12/29 13:46:17;;;;;;;19.58;3.60;;;;;;;;;;6135719;23;20021;-90
2023/12/29 13:49:05;;;;;;;14.05;3.60;;;;;;;;;;6138085;22;20096;-89
2023/12/29 13:52:06;;;;;;;17.60;2.85;;;;;;;;;;6134829;23;20024;-90
2023/12/29 13:59:07;;;;;;;;;;;;;;;;;;;;;
2023/12/29 14:02:15;;;;;;;19.08;4.22;;;;;;;;;;6159236;23;20024;-89
2023/12/29 14:05:46;;;;;;;14.32;3.22;;;;;;;;;;6135619;23;20016;-90
2023/12/29 14:15:39;;;;;;;15.25;3.67;;;;;;;;;;6177800;23;20061;-90
2023/12/29 14:33:24;;;;;;;22.23;4.13;;;;;;;;;;6160469;23;20024;-89
2023/12/29 14:40:22;;;;;;;16.70;3.70;;;;;;;;;;6159817;23;20012;-89
2023/12/29 14:46:47;;;;;;;9.88;2.88;;;;;;;;;;6158747;23;20399;-89
2023/12/29 14:49:31;;;;;;;8.82;2.63;;;;;;;;;;6138880;22;20036;-88
2023/12/29 14:52:21;;;;;;;9.00;2.65;;;;;;;;;;6134664;23;20029;-89
2023/12/29 14:55:31;;;;;;;8.73;2.72;;;;;;;;;;6131360;23;20020;-87
2023/12/29 15:01:47;;;;;;;18.40;4.15;;;;;;;;;;6150711;23;20052;-87
2023/12/29 15:04:37;;;;;;;19.00;4.07;;;;;;;;;;6127745;23;20516;-86
2023/12/29 15:07:47;;;;;;;17.23;4.57;;;;;;;;;;6128574;23;20394;-88
2023/12/29 15:14:32;;;;;;;7.35;2.10;;;;;;;;;;6149781;23;20446;-87
2023/12/29 15:17:16;;;;;;;7.30;2.45;;;;;;;;;;6128253;22;20040;-87
2023/12/29 15:20:00;;;;;;;6.40;2.00;;;;;;;;;;6126478;23;20056;-88
2023/12/29 15:22:46;;;;;;;9.43;2.22;;;;;;;;;;6149945;23;20048;-86
2023/12/29 15:25:34;;;;;;;10.88;2.15;;;;;;;;;;6127442;23;20052;-88
2023/12/29 15:28:20;;;;;;;4.18;1.90;;;;;;;;;;6126523;23;20094;-88
2023/12/29 15:31:07;;;;;;;5.00;2.40;;;;;;;;;;6126579;22;20029;-87
2023/12/29 15:33:54;;;;;;;5.32;1.85;;;;;;;;;;6148979;23;20036;-86
2023/12/29 15:36:47;;;;;;;4.85;1.85;;;;;;;;;;6126719;23;20428;-86
2023/12/29 15:39:34;;;;;;;2.92;1.27;;;;;;;;;;6127592;23;20343;-86
2023/12/29 15:42:18;;;;;;;1.50;1.40;;;;;;;;;;6126988;23;20067;-86
2023/12/29 15:45:02;;;;;;;1.52;1.35;;;;;;;;;;6126784;23;20072;-87
2023/12/29 15:47:47;;;;;;;4.60;3.08;;;;;;;;;;6127678;23;20025;-89
2023/12/29 15:50:31;;;;;;;7.05;4.35;;;;;;;;;;6128233;23;20024;-87
2023/12/29 15:53:18;;;;;;;6.32;4.28;;;;;;;;;;6129258;23;20021;-89
2023/12/29 15:56:03;;;;;;;6.15;4.15;;;;;;;;;;6131236;23;20411;-90
2023/12/29 15:58:48;;;;;;;4.45;3.47;;;;;;;;;;6133356;23;20170;-89
2023/12/29 16:01:32;;;;;;;4.00;3.03;;;;;;;;;;6129050;23;20113;-88
2023/12/29 16:04:19;;;;;;;4.55;3.47;;;;;;;;;;6128680;23;20399;-88
2023/12/29 16:07:03;;;;;;;5.22;3.00;;;;;;;;;;6150731;23;20020;-90
2023/12/29 16:09:47;;;;;;;5.18;3.33;;;;;;;;;;6129583;23;20078;-87
2023/12/29 16:12:31;;;;;;;2.85;2.28;;;;;;;;;;6128399;23;20021;-86
2023/12/29 16:15:15;;;;;;;3.78;2.35;;;;;;;;;;6127906;23;20498;-85
2023/12/29 16:18:00;;;;;;;4.55;2.63;;;;;;;;;;6127212;23;20097;-86
2023/12/29 16:20:44;;;;;;;6.32;3.22;;;;;;;;;;6150145;23;20056;-84
2023/12/29 16:23:28;;;;;;;7.07;3.35;;;;;;;;;;6128406;23;20470;-85
2023/12/29 16:26:15;;;;;;;6.13;3.40;;;;;;;;;;6128408;23;20035;-86
2023/12/29 16:28:59;;;;;;;6.88;3.33;;;;;;;;;;6128484;23;20071;-89
2023/12/29 16:31:46;;;;;;;7.15;3.50;;;;;;;;;;6127978;23;20097;-86
2023/12/29 16:34:31;;;;;;;9.35;4.13;;;;;;;;;;6128204;22;20466;-89
2023/12/29 16:37:15;;;;;;;6.28;2.67;;;;;;;;;;6128581;23;20091;-87
2023/12/29 16:40:02;;;;;;;11.90;6.55;;;;;;;;;;6150422;23;20017;-88
2023/12/29 16:42:49;;;;;;;17.67;10.88;;;;;;;;;;6128967;23;20013;-85
2023/12/29 16:45:34;;;;;;;16.10;7.95;;;;;;;;;;6128744;23;20395;-86
2023/12/29 16:48:18;;;;;;;25.65;13.82;;;;;;;;;;6150410;23;20082;-89
2023/12/29 16:51:02;;;;;;;29.70;16.75;;;;;;;;;;6150532;23;20021;-87
2023/12/29 16:53:46;;;;;;;32.83;17.58;;;;;;;;;;6128925;23;20024;-88
2023/12/29 16:56:30;;;;;;;27.45;13.27;;;;;;;;;;6150396;23;20020;-90
2023/12/29 16:59:17;;;;;;;24.45;13.32;;;;;;;;;;6129155;23;20024;-88
2023/12/29 17:02:07;;;;;;;33.97;15.52;;;;;;;;;;6129040;23;20438;-86
2023/12/29 17:04:51;;;;;;;23.65;11.80;;;;;;;;;;6127998;23;20070;-86
2023/12/29 17:07:35;;;;;;;33.72;13.52;;;;;;;;;;6127819;23;20070;-85
2023/12/29 17:10:19;;;;;;;18.55;5.28;;;;;;;;;;6127893;23;20021;-85
2023/12/29 17:13:03;;;;;;;17.77;8.90;;;;;;;;;;6127683;23;20020;-88
2023/12/29 17:15:47;;;;;;;9.18;3.92;;;;;;;;;;6126384;23;20491;-89
2023/12/29 17:18:31;;;;;;;15.50;4.32;;;;;;;;;;6127867;23;20463;-86
2023/12/29 17:21:14;;;;;;;14.07;4.80;;;;;;;;;;6130144;23;20036;-86
2023/12/29 17:23:58;;;;;;;8.75;3.72;;;;;;;;;;6129264;23;20067;-85
2023/12/29 17:26:44;;;;;;;9.63;3.67;;;;;;;;;;6129263;23;20021;-87
2023/12/29 17:29:28;;;;;;;9.05;3.10;;;;;;;;;;6129419;23;20040;-87
2023/12/29 17:32:12;;;;;;;10.20;3.08;;;;;;;;;;6129097;23;20032;-87